sensor_id;sensor_type;location;lat;lon;timestamp;P1;durP1;ratioP1;P2;durP2;ratioP2
59127;SDS011;44912;52.754;5.994;2022-07-06T00:00:27;5.95;;;2.03;;
59127;SDS011;44912;52.754;5.994;2022-07-06T00:02:53;5.82;;;1.85;;
59127;SDS011;44912;52.754;5.994;2022-07-06T00:05:18;6.70;;;1.70;;
59127;SDS011;44912;52.754;5.994;2022-07-06T00:07:44;4.63;;;1.55;;
59127;SDS011;44912;52.754;5.994;2022-07-06T00:10:10;4.30;;;1.50;;
59127;SDS011;44912;52.754;5.994;2022-07-06T00:12:35;5.82;;;1.45;;
59127;SDS011;44912;52.754;5.994;2022-07-06T00:15:01;6.38;;;1.65;;
59127;SDS011;44912;52.754;5.994;2022-07-06T00:17:26;5.03;;;1.48;;
59127;SDS011;44912;52.754;5.994;2022-07-06T00:19:52;5.25;;;1.40;;
59127;SDS011;44912;52.754;5.994;2022-07-06T00:22:18;4.40;;;1.60;;
59127;SDS011;44912;52.754;5.994;2022-07-06T00:24:43;5.20;;;1.67;;
59127;SDS011;44912;52.754;5.994;2022-07-06T00:27:09;4.68;;;1.65;;
59127;SDS011;44912;52.754;5.994;2022-07-06T00:29:34;6.85;;;1.42;;
59127;SDS011;44912;52.754;5.994;2022-07-06T00:32:00;5.47;;;1.73;;
59127;SDS011;44912;52.754;5.994;2022-07-06T00:34:25;6.47;;;1.27;;
59127;SDS011;44912;52.754;5.994;2022-07-06T00:36:51;3.88;;;1.52;;
59127;SDS011;44912;52.754;5.994;2022-07-06T00:39:16;7.35;;;1.75;;
59127;SDS011;44912;52.754;5.994;2022-07-06T00:41:44;3.60;;;1.33;;
59127;SDS011;44912;52.754;5.994;2022-07-06T00:44:09;5.88;;;1.67;;
59127;SDS011;44912;52.754;5.994;2022-07-06T00:46:35;4.18;;;1.30;;
59127;SDS011;44912;52.754;5.994;2022-07-06T00:49:00;4.00;;;1.27;;
59127;SDS011;44912;52.754;5.994;2022-07-06T00:51:30;4.72;;;1.17;;
59127;SDS011;44912;52.754;5.994;2022-07-06T00:53:58;6.05;;;1.30;;
59127;SDS011;44912;52.754;5.994;2022-07-06T00:56:26;5.97;;;1.55;;
59127;SDS011;44912;52.754;5.994;2022-07-06T00:58:55;3.90;;;1.20;;
59127;SDS011;44912;52.754;5.994;2022-07-06T01:01:21;6.45;;;1.50;;
59127;SDS011;44912;52.754;5.994;2022-07-06T01:03:46;5.43;;;1.55;;
59127;SDS011;44912;52.754;5.994;2022-07-06T01:06:12;5.68;;;1.38;;
59127;SDS011;44912;52.754;5.994;2022-07-06T01:08:37;5.25;;;1.23;;
59127;SDS011;44912;52.754;5.994;2022-07-06T01:11:03;7.43;;;1.88;;
59127;SDS011;44912;52.754;5.994;2022-07-06T01:13:30;4.78;;;1.20;;
59127;SDS011;44912;52.754;5.994;2022-07-06T01:15:57;5.55;;;1.25;;
59127;SDS011;44912;52.754;5.994;2022-07-06T01:18:23;8.52;;;1.30;;
59127;SDS011;44912;52.754;5.994;2022-07-06T01:20:49;5.28;;;1.08;;
59127;SDS011;44912;52.754;5.994;2022-07-06T01:23:14;6.90;;;1.48;;
59127;SDS011;44912;52.754;5.994;2022-07-06T01:25:40;4.32;;;1.40;;
59127;SDS011;44912;52.754;5.994;2022-07-06T01:28:05;5.22;;;1.20;;
59127;SDS011;44912;52.754;5.994;2022-07-06T01:30:31;6.90;;;1.20;;
59127;SDS011;44912;52.754;5.994;2022-07-06T01:32:56;6.25;;;1.02;;
59127;SDS011;44912;52.754;5.994;2022-07-06T01:35:22;6.07;;;1.10;;
59127;SDS011;44912;52.754;5.994;2022-07-06T01:37:51;6.53;;;1.23;;
59127;SDS011;44912;52.754;5.994;2022-07-06T01:40:16;5.75;;;1.17;;
59127;SDS011;44912;52.754;5.994;2022-07-06T01:42:42;4.88;;;1.10;;
59127;SDS011;44912;52.754;5.994;2022-07-06T01:45:08;5.93;;;1.15;;
59127;SDS011;44912;52.754;5.994;2022-07-06T01:47:34;4.55;;;1.30;;
59127;SDS011;44912;52.754;5.994;2022-07-06T01:50:00;5.28;;;1.15;;
59127;SDS011;44912;52.754;5.994;2022-07-06T01:52:29;7.30;;;1.73;;
59127;SDS011;44912;52.754;5.994;2022-07-06T01:54:55;5.60;;;1.30;;
59127;SDS011;44912;52.754;5.994;2022-07-06T01:57:21;3.42;;;1.30;;
59127;SDS011;44912;52.754;5.994;2022-07-06T01:59:47;4.90;;;1.25;;
59127;SDS011;44912;52.754;5.994;2022-07-06T02:02:12;4.63;;;1.40;;
59127;SDS011;44912;52.754;5.994;2022-07-06T02:04:38;6.85;;;1.40;;
59127;SDS011;44912;52.754;5.994;2022-07-06T02:07:04;6.75;;;1.60;;
59127;SDS011;44912;52.754;5.994;2022-07-06T02:09:29;5.93;;;1.60;;
59127;SDS011;44912;52.754;5.994;2022-07-06T02:11:55;5.07;;;2.03;;
59127;SDS011;44912;52.754;5.994;2022-07-06T02:14:20;4.15;;;1.63;;
59127;SDS011;44912;52.754;5.994;2022-07-06T02:16:46;5.38;;;1.70;;
59127;SDS011;44912;52.754;5.994;2022-07-06T02:19:11;4.82;;;1.80;;
59127;SDS011;44912;52.754;5.994;2022-07-06T02:21:37;6.10;;;1.70;;
59127;SDS011;44912;52.754;5.994;2022-07-06T02:24:03;5.53;;;1.75;;
59127;SDS011;44912;52.754;5.994;2022-07-06T02:26:28;6.50;;;1.77;;
59127;SDS011;44912;52.754;5.994;2022-07-06T02:28:54;6.22;;;1.80;;
59127;SDS011;44912;52.754;5.994;2022-07-06T02:31:19;6.93;;;1.65;;
59127;SDS011;44912;52.754;5.994;2022-07-06T02:33:45;7.00;;;2.28;;
59127;SDS011;44912;52.754;5.994;2022-07-06T02:36:11;6.75;;;1.60;;
59127;SDS011;44912;52.754;5.994;2022-07-06T02:38:36;7.75;;;2.00;;
59127;SDS011;44912;52.754;5.994;2022-07-06T02:41:02;5.55;;;1.70;;
59127;SDS011;44912;52.754;5.994;2022-07-06T02:43:27;4.95;;;1.52;;
59127;SDS011;44912;52.754;5.994;2022-07-06T02:45:53;6.15;;;1.50;;
59127;SDS011;44912;52.754;5.994;2022-07-06T02:48:18;8.27;;;1.30;;
59127;SDS011;44912;52.754;5.994;2022-07-06T02:50:46;5.85;;;1.48;;
59127;SDS011;44912;52.754;5.994;2022-07-06T02:53:12;6.43;;;1.25;;
59127;SDS011;44912;52.754;5.994;2022-07-06T02:55:38;8.05;;;1.52;;
59127;SDS011;44912;52.754;5.994;2022-07-06T02:58:03;5.10;;;1.30;;
59127;SDS011;44912;52.754;5.994;2022-07-06T03:00:29;5.85;;;1.20;;
59127;SDS011;44912;52.754;5.994;2022-07-06T03:02:54;4.32;;;1.20;;
59127;SDS011;44912;52.754;5.994;2022-07-06T03:05:20;5.00;;;1.20;;
59127;SDS011;44912;52.754;5.994;2022-07-06T03:07:46;5.43;;;1.38;;
59127;SDS011;44912;52.754;5.994;2022-07-06T03:10:11;4.72;;;1.13;;
59127;SDS011;44912;52.754;5.994;2022-07-06T03:12:37;7.70;;;1.50;;
59127;SDS011;44912;52.754;5.994;2022-07-06T03:15:02;5.57;;;1.13;;
59127;SDS011;44912;52.754;5.994;2022-07-06T03:17:28;4.28;;;1.10;;
59127;SDS011;44912;52.754;5.994;2022-07-06T03:19:54;4.97;;;1.10;;
59127;SDS011;44912;52.754;5.994;2022-07-06T03:22:19;5.47;;;1.20;;
59127;SDS011;44912;52.754;5.994;2022-07-06T03:24:45;4.53;;;1.30;;
59127;SDS011;44912;52.754;5.994;2022-07-06T03:27:10;5.28;;;1.20;;
59127;SDS011;44912;52.754;5.994;2022-07-06T03:29:36;5.47;;;1.35;;
59127;SDS011;44912;52.754;5.994;2022-07-06T03:32:02;5.13;;;1.10;;
59127;SDS011;44912;52.754;5.994;2022-07-06T03:34:27;5.57;;;1.23;;
59127;SDS011;44912;52.754;5.994;2022-07-06T03:36:53;6.13;;;1.27;;
59127;SDS011;44912;52.754;5.994;2022-07-06T03:39:18;5.15;;;1.10;;
59127;SDS011;44912;52.754;5.994;2022-07-06T03:41:44;5.75;;;1.20;;
59127;SDS011;44912;52.754;5.994;2022-07-06T03:44:10;4.82;;;1.40;;
59127;SDS011;44912;52.754;5.994;2022-07-06T03:46:35;7.60;;;1.40;;
59127;SDS011;44912;52.754;5.994;2022-07-06T03:49:01;5.93;;;1.95;;
59127;SDS011;44912;52.754;5.994;2022-07-06T03:51:26;3.63;;;1.23;;
59127;SDS011;44912;52.754;5.994;2022-07-06T03:53:52;8.30;;;1.50;;
59127;SDS011;44912;52.754;5.994;2022-07-06T03:56:17;5.93;;;1.42;;
59127;SDS011;44912;52.754;5.994;2022-07-06T03:58:58;4.68;;;1.10;;
59127;SDS011;44912;52.754;5.994;2022-07-06T04:01:25;6.82;;;1.30;;
59127;SDS011;44912;52.754;5.994;2022-07-06T04:03:51;7.82;;;1.27;;
59127;SDS011;44912;52.754;5.994;2022-07-06T04:06:17;6.15;;;1.20;;
59127;SDS011;44912;52.754;5.994;2022-07-06T04:08:43;3.78;;;1.20;;
59127;SDS011;44912;52.754;5.994;2022-07-06T04:11:08;4.65;;;1.20;;
59127;SDS011;44912;52.754;5.994;2022-07-06T04:13:34;7.25;;;1.75;;
59127;SDS011;44912;52.754;5.994;2022-07-06T04:16:00;6.22;;;1.35;;
59127;SDS011;44912;52.754;5.994;2022-07-06T04:18:26;3.92;;;1.27;;
59127;SDS011;44912;52.754;5.994;2022-07-06T04:20:51;6.28;;;1.33;;
59127;SDS011;44912;52.754;5.994;2022-07-06T04:23:17;3.15;;;1.17;;
59127;SDS011;44912;52.754;5.994;2022-07-06T04:25:42;5.88;;;1.30;;
59127;SDS011;44912;52.754;5.994;2022-07-06T04:28:08;6.13;;;1.30;;
59127;SDS011;44912;52.754;5.994;2022-07-06T04:30:34;7.47;;;1.85;;
59127;SDS011;44912;52.754;5.994;2022-07-06T04:32:59;6.32;;;1.60;;
59127;SDS011;44912;52.754;5.994;2022-07-06T04:35:25;6.22;;;1.55;;
59127;SDS011;44912;52.754;5.994;2022-07-06T04:37:50;3.83;;;1.30;;
59127;SDS011;44912;52.754;5.994;2022-07-06T04:40:16;4.32;;;1.25;;
59127;SDS011;44912;52.754;5.994;2022-07-06T04:42:42;5.57;;;1.30;;
59127;SDS011;44912;52.754;5.994;2022-07-06T04:45:08;5.60;;;1.35;;
59127;SDS011;44912;52.754;5.994;2022-07-06T04:47:34;3.70;;;1.40;;
59127;SDS011;44912;52.754;5.994;2022-07-06T04:50:00;5.80;;;1.38;;
59127;SDS011;44912;52.754;5.994;2022-07-06T04:52:26;6.50;;;1.20;;
59127;SDS011;44912;52.754;5.994;2022-07-06T04:54:53;5.13;;;1.30;;
59127;SDS011;44912;52.754;5.994;2022-07-06T04:57:19;3.08;;;1.23;;
59127;SDS011;44912;52.754;5.994;2022-07-06T04:59:44;5.45;;;1.13;;
59127;SDS011;44912;52.754;5.994;2022-07-06T05:02:10;7.07;;;1.40;;
59127;SDS011;44912;52.754;5.994;2022-07-06T05:04:36;4.60;;;1.10;;
59127;SDS011;44912;52.754;5.994;2022-07-06T05:07:01;4.72;;;1.75;;
59127;SDS011;44912;52.754;5.994;2022-07-06T05:09:27;8.05;;;1.40;;
59127;SDS011;44912;52.754;5.994;2022-07-06T05:11:53;6.75;;;1.33;;
59127;SDS011;44912;52.754;5.994;2022-07-06T05:14:18;6.95;;;1.40;;
59127;SDS011;44912;52.754;5.994;2022-07-06T05:16:44;5.40;;;1.13;;
59127;SDS011;44912;52.754;5.994;2022-07-06T05:19:09;4.57;;;1.00;;
59127;SDS011;44912;52.754;5.994;2022-07-06T05:21:35;5.55;;;1.20;;
59127;SDS011;44912;52.754;5.994;2022-07-06T05:24:00;2.47;;;0.90;;
59127;SDS011;44912;52.754;5.994;2022-07-06T05:26:27;7.20;;;1.27;;
59127;SDS011;44912;52.754;5.994;2022-07-06T05:28:52;6.35;;;0.95;;
59127;SDS011;44912;52.754;5.994;2022-07-06T05:31:18;3.20;;;0.70;;
59127;SDS011;44912;52.754;5.994;2022-07-06T05:33:43;5.75;;;1.02;;
59127;SDS011;44912;52.754;5.994;2022-07-06T05:36:09;3.17;;;0.90;;
59127;SDS011;44912;52.754;5.994;2022-07-06T05:38:34;4.22;;;1.00;;
59127;SDS011;44912;52.754;5.994;2022-07-06T05:41:00;3.88;;;0.90;;
59127;SDS011;44912;52.754;5.994;2022-07-06T05:43:25;4.20;;;0.80;;
59127;SDS011;44912;52.754;5.994;2022-07-06T05:45:51;5.95;;;0.82;;
59127;SDS011;44912;52.754;5.994;2022-07-06T05:48:16;5.43;;;1.15;;
59127;SDS011;44912;52.754;5.994;2022-07-06T05:51:00;8.10;;;1.42;;
59127;SDS011;44912;52.754;5.994;2022-07-06T05:53:26;4.60;;;1.00;;
59127;SDS011;44912;52.754;5.994;2022-07-06T05:55:52;6.22;;;0.90;;
59127;SDS011;44912;52.754;5.994;2022-07-06T05:58:18;5.95;;;0.82;;
59127;SDS011;44912;52.754;5.994;2022-07-06T06:00:43;4.60;;;1.10;;
59127;SDS011;44912;52.754;5.994;2022-07-06T06:03:09;5.53;;;0.75;;
59127;SDS011;44912;52.754;5.994;2022-07-06T06:05:35;6.20;;;1.05;;
59127;SDS011;44912;52.754;5.994;2022-07-06T06:08:00;3.95;;;0.70;;
59127;SDS011;44912;52.754;5.994;2022-07-06T06:10:26;3.15;;;0.90;;
59127;SDS011;44912;52.754;5.994;2022-07-06T06:12:51;1.92;;;0.70;;
59127;SDS011;44912;52.754;5.994;2022-07-06T06:15:18;2.95;;;0.80;;
59127;SDS011;44912;52.754;5.994;2022-07-06T06:17:44;3.05;;;0.70;;
59127;SDS011;44912;52.754;5.994;2022-07-06T06:20:10;3.67;;;0.80;;
59127;SDS011;44912;52.754;5.994;2022-07-06T06:22:54;4.03;;;1.02;;
59127;SDS011;44912;52.754;5.994;2022-07-06T06:25:26;3.83;;;1.00;;
59127;SDS011;44912;52.754;5.994;2022-07-06T06:27:53;4.15;;;0.80;;
59127;SDS011;44912;52.754;5.994;2022-07-06T06:30:19;2.95;;;0.80;;
59127;SDS011;44912;52.754;5.994;2022-07-06T06:32:45;3.47;;;0.80;;
59127;SDS011;44912;52.754;5.994;2022-07-06T06:35:10;4.57;;;0.90;;
59127;SDS011;44912;52.754;5.994;2022-07-06T06:37:36;3.88;;;0.70;;
59127;SDS011;44912;52.754;5.994;2022-07-06T06:40:03;3.55;;;0.70;;
59127;SDS011;44912;52.754;5.994;2022-07-06T06:42:30;4.65;;;0.80;;
59127;SDS011;44912;52.754;5.994;2022-07-06T06:44:55;3.95;;;1.20;;
59127;SDS011;44912;52.754;5.994;2022-07-06T06:47:21;3.92;;;0.80;;
59127;SDS011;44912;52.754;5.994;2022-07-06T06:49:46;2.28;;;0.55;;
59127;SDS011;44912;52.754;5.994;2022-07-06T06:52:12;4.97;;;0.80;;
59127;SDS011;44912;52.754;5.994;2022-07-06T06:54:38;2.80;;;0.80;;
59127;SDS011;44912;52.754;5.994;2022-07-06T06:57:04;3.20;;;0.77;;
59127;SDS011;44912;52.754;5.994;2022-07-06T06:59:29;2.67;;;0.80;;
59127;SDS011;44912;52.754;5.994;2022-07-06T07:01:55;4.72;;;0.85;;
59127;SDS011;44912;52.754;5.994;2022-07-06T07:04:20;2.50;;;0.60;;
59127;SDS011;44912;52.754;5.994;2022-07-06T07:06:46;4.35;;;0.50;;
59127;SDS011;44912;52.754;5.994;2022-07-06T07:09:11;4.22;;;0.75;;
59127;SDS011;44912;52.754;5.994;2022-07-06T07:11:37;3.47;;;0.80;;
59127;SDS011;44912;52.754;5.994;2022-07-06T07:14:02;4.68;;;0.90;;
59127;SDS011;44912;52.754;5.994;2022-07-06T07:16:29;2.80;;;0.70;;
59127;SDS011;44912;52.754;5.994;2022-07-06T07:18:54;1.40;;;0.50;;
59127;SDS011;44912;52.754;5.994;2022-07-06T07:21:20;3.53;;;0.60;;
59127;SDS011;44912;52.754;5.994;2022-07-06T07:23:45;3.05;;;0.60;;
59127;SDS011;44912;52.754;5.994;2022-07-06T07:26:11;5.43;;;0.90;;
59127;SDS011;44912;52.754;5.994;2022-07-06T07:28:36;4.38;;;1.25;;
59127;SDS011;44912;52.754;5.994;2022-07-06T07:31:02;6.53;;;0.95;;
59127;SDS011;44912;52.754;5.994;2022-07-06T07:33:29;3.33;;;0.60;;
59127;SDS011;44912;52.754;5.994;2022-07-06T07:35:55;3.42;;;0.90;;
59127;SDS011;44912;52.754;5.994;2022-07-06T07:38:20;3.30;;;0.57;;
59127;SDS011;44912;52.754;5.994;2022-07-06T07:40:46;3.83;;;0.70;;
59127;SDS011;44912;52.754;5.994;2022-07-06T07:43:11;2.58;;;0.55;;
59127;SDS011;44912;52.754;5.994;2022-07-06T07:45:37;3.60;;;0.88;;
59127;SDS011;44912;52.754;5.994;2022-07-06T07:48:03;5.63;;;0.70;;
59127;SDS011;44912;52.754;5.994;2022-07-06T07:50:29;3.35;;;0.70;;
59127;SDS011;44912;52.754;5.994;2022-07-06T07:52:54;3.83;;;0.63;;
59127;SDS011;44912;52.754;5.994;2022-07-06T07:55:20;3.03;;;0.60;;
59127;SDS011;44912;52.754;5.994;2022-07-06T07:57:46;5.13;;;0.60;;
59127;SDS011;44912;52.754;5.994;2022-07-06T08:00:11;3.25;;;0.60;;
59127;SDS011;44912;52.754;5.994;2022-07-06T08:02:38;3.80;;;0.70;;
59127;SDS011;44912;52.754;5.994;2022-07-06T08:05:03;2.72;;;0.55;;
59127;SDS011;44912;52.754;5.994;2022-07-06T08:07:29;3.63;;;0.70;;
59127;SDS011;44912;52.754;5.994;2022-07-06T08:09:55;2.85;;;0.70;;
59127;SDS011;44912;52.754;5.994;2022-07-06T08:12:20;3.53;;;0.63;;
59127;SDS011;44912;52.754;5.994;2022-07-06T08:14:46;3.72;;;0.60;;
59127;SDS011;44912;52.754;5.994;2022-07-06T08:17:11;3.15;;;0.65;;
59127;SDS011;44912;52.754;5.994;2022-07-06T08:19:37;4.15;;;0.60;;
59127;SDS011;44912;52.754;5.994;2022-07-06T08:22:02;1.85;;;0.40;;
59127;SDS011;44912;52.754;5.994;2022-07-06T08:24:32;1.58;;;0.60;;
59127;SDS011;44912;52.754;5.994;2022-07-06T08:26:59;3.10;;;0.45;;
59127;SDS011;44912;52.754;5.994;2022-07-06T08:29:24;1.95;;;0.50;;
59127;SDS011;44912;52.754;5.994;2022-07-06T08:31:50;2.80;;;0.50;;
59127;SDS011;44912;52.754;5.994;2022-07-06T08:34:15;2.25;;;0.50;;
59127;SDS011;44912;52.754;5.994;2022-07-06T08:36:41;2.40;;;0.82;;
59127;SDS011;44912;52.754;5.994;2022-07-06T08:39:07;4.07;;;0.70;;
59127;SDS011;44912;52.754;5.994;2022-07-06T08:41:32;2.40;;;0.50;;
59127;SDS011;44912;52.754;5.994;2022-07-06T08:43:59;3.60;;;0.68;;
59127;SDS011;44912;52.754;5.994;2022-07-06T08:46:26;1.90;;;0.40;;
59127;SDS011;44912;52.754;5.994;2022-07-06T08:48:54;4.28;;;0.55;;
59127;SDS011;44912;52.754;5.994;2022-07-06T08:51:20;5.57;;;0.60;;
59127;SDS011;44912;52.754;5.994;2022-07-06T08:53:48;2.63;;;0.60;;
59127;SDS011;44912;52.754;5.994;2022-07-06T08:56:15;1.65;;;0.40;;
59127;SDS011;44912;52.754;5.994;2022-07-06T08:58:41;1.95;;;0.60;;
59127;SDS011;44912;52.754;5.994;2022-07-06T09:01:08;2.65;;;0.60;;
59127;SDS011;44912;52.754;5.994;2022-07-06T09:03:35;3.67;;;0.80;;
59127;SDS011;44912;52.754;5.994;2022-07-06T09:06:01;2.78;;;0.57;;
59127;SDS011;44912;52.754;5.994;2022-07-06T09:08:29;2.42;;;0.50;;
59127;SDS011;44912;52.754;5.994;2022-07-06T09:10:56;5.45;;;0.73;;
59127;SDS011;44912;52.754;5.994;2022-07-06T09:13:22;5.28;;;0.80;;
59127;SDS011;44912;52.754;5.994;2022-07-06T09:15:47;5.13;;;0.70;;
59127;SDS011;44912;52.754;5.994;2022-07-06T09:18:13;4.07;;;0.70;;
59127;SDS011;44912;52.754;5.994;2022-07-06T09:20:42;4.07;;;0.80;;
59127;SDS011;44912;52.754;5.994;2022-07-06T09:23:08;3.38;;;0.60;;
59127;SDS011;44912;52.754;5.994;2022-07-06T09:25:34;1.77;;;0.50;;
59127;SDS011;44912;52.754;5.994;2022-07-06T09:28:01;2.20;;;0.68;;
59127;SDS011;44912;52.754;5.994;2022-07-06T09:30:28;3.55;;;0.60;;
59127;SDS011;44912;52.754;5.994;2022-07-06T09:32:55;4.40;;;0.73;;
59127;SDS011;44912;52.754;5.994;2022-07-06T09:35:35;2.95;;;0.57;;
59127;SDS011;44912;52.754;5.994;2022-07-06T09:38:12;2.05;;;0.70;;
59127;SDS011;44912;52.754;5.994;2022-07-06T09:40:42;4.78;;;0.80;;
59127;SDS011;44912;52.754;5.994;2022-07-06T09:43:14;3.85;;;0.68;;
59127;SDS011;44912;52.754;5.994;2022-07-06T09:45:42;4.07;;;0.70;;
59127;SDS011;44912;52.754;5.994;2022-07-06T09:48:13;3.30;;;0.73;;
59127;SDS011;44912;52.754;5.994;2022-07-06T09:50:44;5.03;;;0.70;;
59127;SDS011;44912;52.754;5.994;2022-07-06T09:53:11;2.60;;;0.50;;
59127;SDS011;44912;52.754;5.994;2022-07-06T09:55:37;2.50;;;0.50;;
59127;SDS011;44912;52.754;5.994;2022-07-06T09:58:04;2.10;;;0.50;;
59127;SDS011;44912;52.754;5.994;2022-07-06T10:00:30;2.20;;;0.50;;
59127;SDS011;44912;52.754;5.994;2022-07-06T10:02:56;8.52;;;1.20;;
59127;SDS011;44912;52.754;5.994;2022-07-06T10:05:22;3.42;;;0.65;;
59127;SDS011;44912;52.754;5.994;2022-07-06T10:07:55;2.75;;;0.60;;
59127;SDS011;44912;52.754;5.994;2022-07-06T10:10:23;2.05;;;0.60;;
59127;SDS011;44912;52.754;5.994;2022-07-06T10:12:50;4.60;;;0.60;;
59127;SDS011;44912;52.754;5.994;2022-07-06T10:15:19;3.17;;;0.50;;
59127;SDS011;44912;52.754;5.994;2022-07-06T10:17:46;1.92;;;0.50;;
59127;SDS011;44912;52.754;5.994;2022-07-06T10:20:12;3.70;;;1.20;;
59127;SDS011;44912;52.754;5.994;2022-07-06T10:22:38;2.50;;;0.85;;
59127;SDS011;44912;52.754;5.994;2022-07-06T10:25:05;3.47;;;0.70;;
59127;SDS011;44912;52.754;5.994;2022-07-06T10:27:32;4.22;;;0.82;;
59127;SDS011;44912;52.754;5.994;2022-07-06T10:29:59;2.17;;;0.70;;
59127;SDS011;44912;52.754;5.994;2022-07-06T10:32:25;2.88;;;0.47;;
59127;SDS011;44912;52.754;5.994;2022-07-06T10:34:52;3.47;;;0.63;;
59127;SDS011;44912;52.754;5.994;2022-07-06T10:37:22;4.25;;;0.77;;
59127;SDS011;44912;52.754;5.994;2022-07-06T10:39:49;1.83;;;0.52;;
59127;SDS011;44912;52.754;5.994;2022-07-06T10:50:35;1.23;;;0.52;;
59127;SDS011;44912;52.754;5.994;2022-07-06T10:53:12;3.95;;;0.60;;
59127;SDS011;44912;52.754;5.994;2022-07-06T10:55:40;3.10;;;0.70;;
59127;SDS011;44912;52.754;5.994;2022-07-06T10:58:08;6.10;;;0.70;;
59127;SDS011;44912;52.754;5.994;2022-07-06T11:00:48;4.85;;;1.15;;
59127;SDS011;44912;52.754;5.994;2022-07-06T11:03:37;1.95;;;0.60;;
59127;SDS011;44912;52.754;5.994;2022-07-06T11:06:10;2.97;;;0.52;;
59127;SDS011;44912;52.754;5.994;2022-07-06T11:21:41;3.95;;;0.80;;
59127;SDS011;44912;52.754;5.994;2022-07-06T11:24:17;3.17;;;0.77;;
59127;SDS011;44912;52.754;5.994;2022-07-06T11:26:48;1.85;;;0.50;;
59127;SDS011;44912;52.754;5.994;2022-07-06T11:29:16;2.90;;;0.60;;
59127;SDS011;44912;52.754;5.994;2022-07-06T11:31:44;5.82;;;0.70;;
59127;SDS011;44912;52.754;5.994;2022-07-06T11:34:12;3.28;;;0.60;;
59127;SDS011;44912;52.754;5.994;2022-07-06T11:36:41;1.73;;;0.45;;
59127;SDS011;44912;52.754;5.994;2022-07-06T11:39:06;2.97;;;0.55;;
59127;SDS011;44912;52.754;5.994;2022-07-06T11:41:32;3.10;;;1.05;;
59127;SDS011;44912;52.754;5.994;2022-07-06T11:43:58;2.03;;;0.80;;
59127;SDS011;44912;52.754;5.994;2022-07-06T11:46:25;2.58;;;0.70;;
59127;SDS011;44912;52.754;5.994;2022-07-06T11:48:53;3.03;;;0.60;;
59127;SDS011;44912;52.754;5.994;2022-07-06T11:51:20;3.42;;;0.50;;
59127;SDS011;44912;52.754;5.994;2022-07-06T11:53:48;2.80;;;0.60;;
59127;SDS011;44912;52.754;5.994;2022-07-06T11:56:15;2.60;;;0.63;;
59127;SDS011;44912;52.754;5.994;2022-07-06T11:58:43;3.42;;;0.60;;
59127;SDS011;44912;52.754;5.994;2022-07-06T12:01:11;2.42;;;0.60;;
59127;SDS011;44912;52.754;5.994;2022-07-06T12:03:38;2.65;;;0.73;;
59127;SDS011;44912;52.754;5.994;2022-07-06T12:06:10;2.35;;;0.60;;
59127;SDS011;44912;52.754;5.994;2022-07-06T12:08:50;3.10;;;0.70;;
59127;SDS011;44912;52.754;5.994;2022-07-06T12:11:29;2.90;;;0.60;;
59127;SDS011;44912;52.754;5.994;2022-07-06T12:14:00;1.80;;;0.60;;
59127;SDS011;44912;52.754;5.994;2022-07-06T12:16:38;2.97;;;0.70;;
59127;SDS011;44912;52.754;5.994;2022-07-06T12:19:05;3.17;;;0.68;;
59127;SDS011;44912;52.754;5.994;2022-07-06T12:21:33;2.35;;;0.63;;
59127;SDS011;44912;52.754;5.994;2022-07-06T12:23:59;2.85;;;0.43;;
59127;SDS011;44912;52.754;5.994;2022-07-06T12:26:26;2.92;;;0.70;;
59127;SDS011;44912;52.754;5.994;2022-07-06T12:29:29;3.50;;;0.77;;
59127;SDS011;44912;52.754;5.994;2022-07-06T12:31:52;2.55;;;0.65;;
59127;SDS011;44912;52.754;5.994;2022-07-06T12:34:20;4.18;;;0.60;;
59127;SDS011;44912;52.754;5.994;2022-07-06T12:36:48;3.40;;;1.25;;
59127;SDS011;44912;52.754;5.994;2022-07-06T12:39:19;3.22;;;0.60;;
59127;SDS011;44912;52.754;5.994;2022-07-06T12:41:50;2.60;;;0.52;;
59127;SDS011;44912;52.754;5.994;2022-07-06T12:44:18;3.17;;;0.65;;
59127;SDS011;44912;52.754;5.994;2022-07-06T12:46:46;3.47;;;0.82;;
59127;SDS011;44912;52.754;5.994;2022-07-06T12:49:30;2.50;;;0.60;;
59127;SDS011;44912;52.754;5.994;2022-07-06T12:57:13;3.85;;;0.80;;
59127;SDS011;44912;52.754;5.994;2022-07-06T12:59:42;2.88;;;0.73;;
59127;SDS011;44912;52.754;5.994;2022-07-06T13:02:16;2.60;;;0.70;;
59127;SDS011;44912;52.754;5.994;2022-07-06T13:04:43;2.45;;;0.52;;
59127;SDS011;44912;52.754;5.994;2022-07-06T13:07:18;2.85;;;0.70;;
59127;SDS011;44912;52.754;5.994;2022-07-06T13:09:44;3.95;;;1.00;;
59127;SDS011;44912;52.754;5.994;2022-07-06T13:12:11;5.15;;;1.45;;
59127;SDS011;44912;52.754;5.994;2022-07-06T13:14:37;10.05;;;2.40;;
59127;SDS011;44912;52.754;5.994;2022-07-06T13:17:02;10.63;;;2.58;;
59127;SDS011;44912;52.754;5.994;2022-07-06T13:19:28;8.60;;;2.03;;
59127;SDS011;44912;52.754;5.994;2022-07-06T13:21:54;6.28;;;1.30;;
59127;SDS011;44912;52.754;5.994;2022-07-06T13:24:20;10.55;;;1.90;;
59127;SDS011;44912;52.754;5.994;2022-07-06T13:26:45;5.22;;;1.05;;
59127;SDS011;44912;52.754;5.994;2022-07-06T13:29:11;8.07;;;1.98;;
59127;SDS011;44912;52.754;5.994;2022-07-06T13:31:38;9.30;;;1.83;;
59127;SDS011;44912;52.754;5.994;2022-07-06T13:34:04;7.10;;;2.30;;
59127;SDS011;44912;52.754;5.994;2022-07-06T13:36:31;6.85;;;1.50;;
59127;SDS011;44912;52.754;5.994;2022-07-06T13:38:57;6.90;;;1.50;;
59127;SDS011;44912;52.754;5.994;2022-07-06T13:41:23;3.67;;;1.00;;
59127;SDS011;44912;52.754;5.994;2022-07-06T13:43:48;3.55;;;0.80;;
59127;SDS011;44912;52.754;5.994;2022-07-06T13:46:14;3.20;;;0.80;;
59127;SDS011;44912;52.754;5.994;2022-07-06T13:48:41;3.97;;;1.20;;
59127;SDS011;44912;52.754;5.994;2022-07-06T13:51:07;4.95;;;1.25;;
59127;SDS011;44912;52.754;5.994;2022-07-06T13:53:33;5.38;;;1.10;;
59127;SDS011;44912;52.754;5.994;2022-07-06T13:55:58;4.75;;;1.00;;
59127;SDS011;44912;52.754;5.994;2022-07-06T13:58:24;3.88;;;0.77;;
59127;SDS011;44912;52.754;5.994;2022-07-06T14:00:50;4.65;;;1.10;;
59127;SDS011;44912;52.754;5.994;2022-07-06T14:03:15;4.53;;;0.90;;
59127;SDS011;44912;52.754;5.994;2022-07-06T14:05:41;4.05;;;0.85;;
59127;SDS011;44912;52.754;5.994;2022-07-06T14:08:07;4.53;;;1.08;;
59127;SDS011;44912;52.754;5.994;2022-07-06T14:10:33;3.60;;;0.95;;
59127;SDS011;44912;52.754;5.994;2022-07-06T14:12:58;3.42;;;1.38;;
59127;SDS011;44912;52.754;5.994;2022-07-06T14:15:24;5.13;;;1.00;;
59127;SDS011;44912;52.754;5.994;2022-07-06T14:17:49;2.70;;;1.00;;
59127;SDS011;44912;52.754;5.994;2022-07-06T14:20:15;4.68;;;1.02;;
59127;SDS011;44912;52.754;5.994;2022-07-06T14:22:41;2.03;;;0.80;;
59127;SDS011;44912;52.754;5.994;2022-07-06T14:25:06;3.53;;;1.00;;
59127;SDS011;44912;52.754;5.994;2022-07-06T14:27:33;4.57;;;1.02;;
59127;SDS011;44912;52.754;5.994;2022-07-06T14:29:59;4.95;;;1.08;;
59127;SDS011;44912;52.754;5.994;2022-07-06T14:32:25;3.17;;;1.00;;
59127;SDS011;44912;52.754;5.994;2022-07-06T14:34:50;3.38;;;1.00;;
59127;SDS011;44912;52.754;5.994;2022-07-06T14:37:16;6.00;;;1.55;;
59127;SDS011;44912;52.754;5.994;2022-07-06T14:39:42;5.18;;;1.10;;
59127;SDS011;44912;52.754;5.994;2022-07-06T14:42:07;4.00;;;0.90;;
59127;SDS011;44912;52.754;5.994;2022-07-06T14:44:33;2.78;;;1.00;;
59127;SDS011;44912;52.754;5.994;2022-07-06T14:46:58;5.10;;;1.30;;
59127;SDS011;44912;52.754;5.994;2022-07-06T14:49:24;4.35;;;1.00;;
59127;SDS011;44912;52.754;5.994;2022-07-06T14:51:49;4.18;;;1.15;;
59127;SDS011;44912;52.754;5.994;2022-07-06T14:54:15;5.07;;;1.10;;
59127;SDS011;44912;52.754;5.994;2022-07-06T14:56:41;3.63;;;1.10;;
59127;SDS011;44912;52.754;5.994;2022-07-06T14:59:07;4.65;;;1.27;;
59127;SDS011;44912;52.754;5.994;2022-07-06T15:01:33;4.88;;;1.10;;
59127;SDS011;44912;52.754;5.994;2022-07-06T15:03:58;6.55;;;1.40;;
59127;SDS011;44912;52.754;5.994;2022-07-06T15:06:24;8.05;;;1.75;;
59127;SDS011;44912;52.754;5.994;2022-07-06T15:08:50;7.82;;;1.60;;
59127;SDS011;44912;52.754;5.994;2022-07-06T15:11:16;6.00;;;1.70;;